createdAt,value
2023-11-24T00:02:00.292Z,100348.38
2023-11-24T00:05:04.393Z,100331.50
2023-11-24T00:08:07.161Z,100324.25
2023-11-24T00:11:09.919Z,100313.88
2023-11-24T00:14:12.745Z,100311.84
2023-11-24T00:17:15.485Z,100299.25
2023-11-24T00:20:18.388Z,100297.22
2023-11-24T00:23:21.172Z,100297.34
2023-11-24T00:26:27.582Z,100293.13
2023-11-24T00:29:36.867Z,100276.31
2023-11-24T00:32:41.265Z,100271.66
2023-11-24T00:35:44.106Z,100261.63
2023-11-24T00:38:46.794Z,100257.78
2023-11-24T00:41:49.575Z,100253.53
2023-11-24T00:44:52.232Z,100241.72
2023-11-24T00:47:55.063Z,100223.88
2023-11-24T00:50:57.848Z,100219.31
2023-11-24T00:54:00.642Z,100214.63
2023-11-24T00:57:03.491Z,100200.94
2023-11-24T01:00:09.611Z,100193.81
2023-11-24T01:03:12.461Z,100178.34
2023-11-24T01:06:15.437Z,100187.53
2023-11-24T01:09:18.249Z,100188.28
2023-11-24T01:12:21.189Z,100190.31
2023-11-24T01:15:23.992Z,100179.09
2023-11-24T01:18:28.956Z,100164.13
2023-11-24T01:21:32.972Z,100157.81
2023-11-24T01:24:36.167Z,100159.72
2023-11-24T01:27:39.038Z,100159.38
2023-11-24T01:30:42.181Z,100155.78
2023-11-24T01:33:44.871Z,100148.41
2023-11-24T01:36:47.603Z,100144.63
2023-11-24T01:39:51.150Z,100138.72
2023-11-24T01:42:53.873Z,100127.78
2023-11-24T01:45:57.115Z,100119.09
2023-11-24T01:49:00.403Z,100123.50
2023-11-24T01:52:04.604Z,100114.44
2023-11-24T01:55:07.872Z,100094.72
2023-11-24T01:58:10.742Z,100091.59
2023-11-24T02:01:15.057Z,100088.75
2023-11-24T02:04:17.922Z,100068.44
2023-11-24T02:07:20.781Z,100049.78
2023-11-24T02:10:23.442Z,100042.28
2023-11-24T02:13:27.927Z,100032.84
2023-11-24T02:16:30.650Z,100023.13
2023-11-24T02:19:33.616Z,100004.91
2023-11-24T02:22:43.143Z,100003.91
2023-11-24T02:25:45.958Z,100007.13
2023-11-24T02:28:48.735Z,99991.13
2023-11-24T02:31:51.673Z,99990.59
2023-11-24T02:34:54.520Z,99998.69
2023-11-24T02:37:57.412Z,100002.13
2023-11-24T02:41:01.497Z,99979.22
2023-11-24T02:44:04.526Z,99978.78
2023-11-24T02:47:07.624Z,99967.78
2023-11-24T02:50:10.333Z,99958.97
2023-11-24T02:53:13.089Z,99942.72
2023-11-24T02:56:15.760Z,99936.06
2023-11-24T02:59:18.518Z,99936.63
2023-11-24T03:02:21.319Z,99935.03
2023-11-24T03:05:25.041Z,99932.19
2023-11-24T03:08:27.852Z,99939.22
2023-11-24T03:11:31.728Z,99926.72
2023-11-24T03:14:34.396Z,99912.94
2023-11-24T03:17:37.487Z,99914.31
2023-11-24T03:20:42.185Z,99907.28
2023-11-24T03:23:46.393Z,99903.34
2023-11-24T03:26:49.194Z,99901.75
2023-11-24T03:29:52.029Z,99898.19
2023-11-24T03:32:54.902Z,99883.94
2023-11-24T03:35:57.977Z,99870.63
2023-11-24T03:39:01.182Z,99880.88
2023-11-24T03:42:04.247Z,99880.50
2023-11-24T03:45:07.826Z,99873.06
2023-11-24T03:48:11.276Z,99878.63
2023-11-24T03:51:21.474Z,99865.69
2023-11-24T03:54:24.749Z,99870.09
2023-11-24T03:57:27.587Z,99871.69
2023-11-24T04:00:31.460Z,99867.75
2023-11-24T04:03:34.216Z,99843.81
2023-11-24T04:06:37.157Z,99844.75
2023-11-24T04:09:40.238Z,99826.03
2023-11-24T04:12:42.980Z,99832.38
2023-11-24T04:15:45.858Z,99834.31
2023-11-24T04:18:49.388Z,99826.44
2023-11-24T04:21:54.999Z,99829.56
2023-11-24T04:24:58.709Z,99831.19
2023-11-24T04:28:01.443Z,99841.75
2023-11-24T04:31:04.302Z,99842.25
2023-11-24T04:34:07.491Z,99827.81
2023-11-24T04:37:10.457Z,99846.06
2023-11-24T04:40:13.385Z,99847.88
2023-11-24T04:43:16.177Z,99838.81
2023-11-24T04:46:18.958Z,99836.44
2023-11-24T04:49:23.537Z,99827.97
2023-11-24T04:52:26.195Z,99822.63
2023-11-24T04:55:28.838Z,99827.97
2023-11-24T04:58:31.606Z,99824.56
2023-11-24T05:01:34.424Z,99821.34
2023-11-24T05:04:38.194Z,99816.63
2023-11-24T05:07:42.753Z,99818.53
2023-11-24T05:10:45.618Z,99802.41
2023-11-24T05:13:49.383Z,99791.16
2023-11-24T05:16:52.304Z,99784.00
2023-11-24T05:19:55.557Z,99785.97
2023-11-24T05:22:58.343Z,99786.66
2023-11-24T05:26:02.847Z,99770.38
2023-11-24T05:29:05.693Z,99752.94
2023-11-24T05:32:08.389Z,99757.50
2023-11-24T05:35:11.371Z,99768.50
2023-11-24T05:38:14.369Z,99762.47
2023-11-24T05:41:19.785Z,99768.03
2023-11-24T05:44:23.097Z,99753.34
2023-11-24T05:47:25.850Z,99753.50
2023-11-24T05:50:28.853Z,99762.09
2023-11-24T05:53:31.656Z,99774.19
2023-11-24T05:56:34.490Z,99770.75
2023-11-24T05:59:37.157Z,99767.50
2023-11-24T06:02:39.929Z,99783.91
2023-11-24T06:05:43.218Z,99797.59
2023-11-24T06:08:45.907Z,99795.50
2023-11-24T06:11:48.608Z,99769.25
2023-11-24T06:14:51.428Z,99758.25
2023-11-24T06:17:54.796Z,99750.41
2023-11-24T06:20:57.642Z,99752.19
2023-11-24T06:24:01.081Z,99769.81
2023-11-24T06:27:05.550Z,99744.13
2023-11-24T06:30:08.633Z,99754.22
2023-11-24T06:33:11.333Z,99763.50
2023-11-24T06:36:14.713Z,99772.00
2023-11-24T06:39:21.267Z,99763.50
2023-11-24T06:42:24.054Z,99768.56
2023-11-24T06:45:26.794Z,99725.06
2023-11-24T06:48:29.803Z,99724.41
2023-11-24T06:51:33.419Z,99741.88
2023-11-24T06:54:36.783Z,99733.38
2023-11-24T06:57:40.108Z,99746.28
2023-11-24T07:00:43.733Z,99734.72
2023-11-24T07:03:49.561Z,99701.78
2023-11-24T07:06:58.283Z,99697.53
2023-11-24T07:10:07.215Z,99699.66
2023-11-24T07:13:14.823Z,99688.44
2023-11-24T07:16:19.659Z,99696.25
2023-11-24T07:19:25.751Z,99696.69
2023-11-24T07:22:32.032Z,99692.53
2023-11-24T07:25:34.970Z,99675.06
2023-11-24T07:28:40.254Z,99683.22
2023-11-24T07:31:43.205Z,99671.81
2023-11-24T07:34:46.181Z,99665.03
2023-11-24T07:37:48.939Z,99666.25
2023-11-24T07:40:56.602Z,99662.84
2023-11-24T07:43:59.346Z,99656.97
2023-11-24T07:47:02.231Z,99649.94
2023-11-24T07:50:05.878Z,99673.41
2023-11-24T07:53:08.845Z,99679.09
2023-11-24T07:56:11.572Z,99639.34
2023-11-24T07:59:14.391Z,99624.84
2023-11-24T08:02:17.248Z,99619.59
2023-11-24T08:05:19.985Z,99610.91
2023-11-24T08:08:23.569Z,99621.84
2023-11-24T08:11:27.697Z,99611.75
2023-11-24T08:14:30.804Z,99596.41
2023-11-24T08:17:33.973Z,99607.84
2023-11-24T08:20:36.853Z,99597.44
2023-11-24T08:23:39.708Z,99587.53
2023-11-24T08:26:42.672Z,99599.47
2023-11-24T08:29:45.332Z,99591.78
2023-11-24T08:32:50.167Z,99575.47
2023-11-24T08:35:53.107Z,99580.53
2023-11-24T08:38:56.241Z,99582.88
2023-11-24T08:41:58.987Z,99593.66
2023-11-24T08:45:01.990Z,99601.16
2023-11-24T08:48:08.378Z,99615.41
2023-11-24T08:51:11.132Z,99634.50
2023-11-24T08:54:14.841Z,99626.84
2023-11-24T08:57:17.909Z,99631.81
2023-11-24T09:00:20.674Z,99617.69
2023-11-24T09:03:25.988Z,99616.31
2023-11-24T09:06:32.683Z,99607.00
2023-11-24T09:09:35.592Z,99617.19
2023-11-24T09:12:39.004Z,99600.88
2023-11-24T09:15:44.736Z,99614.25
2023-11-24T09:18:50.701Z,99612.25
2023-11-24T09:21:53.679Z,99620.13
2023-11-24T09:24:58.277Z,99612.34
2023-11-24T09:28:02.072Z,99619.09
2023-11-24T09:31:10.069Z,99626.19
2023-11-24T09:34:16.312Z,99606.41
2023-11-24T09:37:19.175Z,99591.31
2023-11-24T09:40:25.324Z,99582.88
2023-11-24T09:43:29.195Z,99587.47
2023-11-24T09:46:42.456Z,99599.63
2023-11-24T09:49:51.992Z,99621.00
2023-11-24T09:53:00.378Z,99598.97
2023-11-24T09:56:04.377Z,99585.88
2023-11-24T09:59:12.654Z,99578.28
2023-11-24T10:02:19.583Z,99594.25
2023-11-24T10:05:22.753Z,99565.97
2023-11-24T10:08:51.680Z,99558.38
2023-11-24T10:12:21.058Z,99573.56
2023-11-24T10:15:24.400Z,99571.28
2023-11-24T10:18:27.377Z,99567.03
2023-11-24T10:21:33.055Z,99570.78
2023-11-24T10:24:38.761Z,99575.25
2023-11-24T10:27:42.291Z,99574.84
2023-11-24T10:30:46.565Z,99574.16
2023-11-24T10:33:52.918Z,99567.56
2023-11-24T10:36:56.797Z,99550.97
2023-11-24T10:40:02.070Z,99537.78
2023-11-24T10:43:07.865Z,99528.69
2023-11-24T10:46:16.043Z,99525.66
2023-11-24T10:49:34.886Z,99526.03
2023-11-24T10:52:49.033Z,99532.06
2023-11-24T10:55:54.828Z,99532.94
2023-11-24T10:58:57.933Z,99534.75
2023-11-24T11:02:06.922Z,99528.69
2023-11-24T11:05:24.867Z,99516.91
2023-11-24T11:08:37.570Z,99509.84
2023-11-24T11:11:50.651Z,99504.50
2023-11-24T11:14:53.418Z,99494.91
2023-11-24T11:18:12.076Z,99503.63
2023-11-24T11:21:41.556Z,99504.97
2023-11-24T11:24:45.105Z,99484.38
2023-11-24T11:27:48.418Z,99485.56
2023-11-24T11:30:52.415Z,99474.31
2023-11-24T11:33:55.381Z,99469.81
2023-11-24T11:37:08.605Z,99460.38
2023-11-24T11:40:13.901Z,99446.50
2023-11-24T11:43:17.393Z,99425.28
2023-11-24T11:46:20.264Z,99420.59
2023-11-24T11:49:25.104Z,99404.63
2023-11-24T11:52:29.433Z,99408.88
2023-11-24T11:55:32.434Z,99412.88
2023-11-24T11:58:36.536Z,99409.34
2023-11-24T12:01:43.112Z,99402.09
2023-11-24T12:04:49.031Z,99402.41
2023-11-24T12:07:52.651Z,99411.19
2023-11-24T12:10:55.578Z,99402.44
2023-11-24T12:13:58.257Z,99384.44
2023-11-24T12:17:01.390Z,99392.72
2023-11-24T12:20:11.376Z,99385.47
2023-11-24T12:23:20.700Z,99385.19
2023-11-24T12:26:23.750Z,99387.09
2023-11-24T12:29:27.774Z,99367.53
2023-11-24T12:32:33.424Z,99356.91
2023-11-24T12:35:36.333Z,99353.06
2023-11-24T12:38:39.767Z,99347.31
2023-11-24T12:41:44.906Z,99351.94
2023-11-24T12:44:53.048Z,99356.38
2023-11-24T12:48:07.915Z,99346.94
2023-11-24T12:51:10.930Z,99351.38
2023-11-24T12:54:14.057Z,99342.97
2023-11-24T12:57:18.115Z,99340.38
2023-11-24T13:00:27.405Z,99330.06
2023-11-24T13:03:30.248Z,99321.19
2023-11-24T13:06:32.989Z,99288.00
2023-11-24T13:09:35.712Z,99265.22
2023-11-24T13:12:42.876Z,99264.81
2023-11-24T13:15:45.942Z,99263.22
2023-11-24T13:18:48.738Z,99275.75
2023-11-24T13:21:57.612Z,99282.66
2023-11-24T13:25:01.615Z,99272.88
2023-11-24T13:28:07.064Z,99267.13
2023-11-24T13:31:10.160Z,99266.44
2023-11-24T13:34:15.849Z,99257.00
2023-11-24T13:37:19.438Z,99257.00
2023-11-24T13:40:27.725Z,99259.06
2023-11-24T13:43:30.855Z,99263.19
2023-11-24T13:46:37.930Z,99254.88
2023-11-24T13:49:44.118Z,99251.59
2023-11-24T13:52:57.564Z,99247.41
2023-11-24T13:56:00.963Z,99250.34
2023-11-24T13:59:04.764Z,99260.81
2023-11-24T14:02:08.766Z,99241.22
2023-11-24T14:05:14.488Z,99249.59
2023-11-24T14:08:17.258Z,99243.66
2023-11-24T14:11:19.953Z,99245.44
2023-11-24T14:14:22.765Z,99258.25
2023-11-24T14:17:26.024Z,99259.31
2023-11-24T14:20:28.810Z,99258.88
2023-11-24T14:23:33.110Z,99232.16
2023-11-24T14:26:36.153Z,99223.00
2023-11-24T14:29:39.182Z,99224.63
2023-11-24T14:32:42.759Z,99237.81
2023-11-24T14:35:46.489Z,99250.25
2023-11-24T14:38:50.039Z,99267.94
2023-11-24T14:41:56.829Z,99271.91
2023-11-24T14:44:59.730Z,99293.78
2023-11-24T14:48:02.483Z,99278.19
2023-11-24T14:51:06.999Z,99280.34
2023-11-24T14:54:09.844Z,99295.13
2023-11-24T14:57:14.264Z,99306.53
2023-11-24T15:00:35.897Z,99324.50
2023-11-24T15:03:40.913Z,99311.63
2023-11-24T15:06:44.880Z,99306.94
2023-11-24T15:09:49.995Z,99315.47
2023-11-24T15:12:52.846Z,99320.34
2023-11-24T15:15:57.396Z,99316.09
2023-11-24T15:19:00.172Z,99328.47
2023-11-24T15:22:20.042Z,99341.06
2023-11-24T15:25:28.046Z,99337.84
2023-11-24T15:28:34.746Z,99322.03
2023-11-24T15:31:40.576Z,99305.69
2023-11-24T15:34:44.982Z,99309.56
2023-11-24T15:37:48.061Z,99306.50
2023-11-24T15:40:53.004Z,99303.22
2023-11-24T15:43:55.929Z,99298.38
2023-11-24T15:46:58.712Z,99306.47
2023-11-24T15:50:04.397Z,99309.88
2023-11-24T15:53:07.543Z,99320.47
2023-11-24T15:56:14.634Z,99323.91
2023-11-24T15:59:24.772Z,99314.59
2023-11-24T16:02:34.038Z,99309.13
2023-11-24T16:05:41.941Z,99312.59
2023-11-24T16:08:55.253Z,99325.91
2023-11-24T16:12:03.212Z,99348.63
2023-11-24T16:15:06.684Z,99346.44
2023-11-24T16:18:12.667Z,99351.25
2023-11-24T16:21:15.794Z,99347.03
2023-11-24T16:24:19.657Z,99344.78
2023-11-24T16:27:23.407Z,99344.78
2023-11-24T16:30:26.265Z,99358.94
2023-11-24T16:33:30.113Z,99374.47
2023-11-24T16:36:36.032Z,99377.91
2023-11-24T16:39:38.782Z,99381.16
2023-11-24T16:42:42.208Z,99372.06
2023-11-24T16:45:45.162Z,99361.72
2023-11-24T16:48:47.910Z,99347.53
2023-11-24T16:51:50.747Z,99327.91
2023-11-24T16:54:53.688Z,99314.75
2023-11-24T16:57:56.714Z,99324.19
2023-11-24T17:01:00.464Z,99336.72
2023-11-24T17:04:03.520Z,99327.34
2023-11-24T17:07:07.451Z,99305.50
2023-11-24T17:10:11.222Z,99278.75
2023-11-24T17:13:13.972Z,99284.44
2023-11-24T17:16:17.563Z,99262.31
2023-11-24T17:19:21.299Z,99249.28
2023-11-24T17:22:24.102Z,99229.22
2023-11-24T17:25:35.179Z,99226.41
2023-11-24T17:28:41.228Z,99227.97
2023-11-24T17:31:44.521Z,99236.34
2023-11-24T17:34:47.666Z,99229.91
2023-11-24T17:37:50.484Z,99229.69
2023-11-24T17:40:53.214Z,99230.19
2023-11-24T17:43:55.975Z,99228.34
2023-11-24T17:46:59.389Z,99218.28
2023-11-24T17:50:02.086Z,99228.19
2023-11-24T17:53:05.140Z,99229.41
2023-11-24T17:56:08.935Z,99224.13
2023-11-24T17:59:12.423Z,99240.44
2023-11-24T18:02:15.137Z,99241.78
2023-11-24T18:05:18.679Z,99255.53
2023-11-24T18:08:23.707Z,99267.97
2023-11-24T18:11:32.439Z,99271.03
2023-11-24T18:14:35.251Z,99271.84
2023-11-24T18:17:42.276Z,99281.41
2023-11-24T18:20:46.911Z,99279.75
2023-11-24T18:23:50.731Z,99282.25
2023-11-24T18:26:53.733Z,99306.75
2023-11-24T18:29:56.446Z,99311.16
2023-11-24T18:32:59.592Z,99312.34
2023-11-24T18:36:02.367Z,99322.81
2023-11-24T18:39:05.120Z,99317.56
2023-11-24T18:42:08.260Z,99303.84
2023-11-24T18:45:11.650Z,99294.78
2023-11-24T18:48:14.779Z,99300.69
2023-11-24T18:51:17.705Z,99309.22
2023-11-24T18:54:21.128Z,99293.88
2023-11-24T18:57:23.851Z,99283.19
2023-11-24T19:00:26.728Z,99286.47
2023-11-24T19:03:30.753Z,99286.25
2023-11-24T19:06:34.013Z,99285.84
2023-11-24T19:09:37.171Z,99281.81
2023-11-24T19:12:41.081Z,99273.56
2023-11-24T19:15:46.922Z,99302.53
2023-11-24T19:18:50.166Z,99294.44
2023-11-24T19:21:53.685Z,99298.13
2023-11-24T19:24:56.751Z,99295.94
2023-11-24T19:28:00.715Z,99292.72
2023-11-24T19:31:03.671Z,99276.75
2023-11-24T19:34:07.408Z,99265.41
2023-11-24T19:37:11.124Z,99241.97
2023-11-24T19:40:15.646Z,99238.53
2023-11-24T19:43:18.475Z,99220.06
2023-11-24T19:46:23.397Z,99213.03
2023-11-24T19:49:27.176Z,99208.81
2023-11-24T19:52:30.276Z,99216.97
2023-11-24T19:55:33.548Z,99209.94
2023-11-24T19:58:36.635Z,99182.66
2023-11-24T20:01:39.601Z,99173.78
2023-11-24T20:04:42.791Z,99179.28
2023-11-24T20:07:45.621Z,99166.38
2023-11-24T20:10:48.942Z,99167.28
2023-11-24T20:13:52.190Z,99170.44
2023-11-24T20:16:55.372Z,99171.44
2023-11-24T20:19:58.513Z,99182.63
2023-11-24T20:23:01.474Z,99189.50
2023-11-24T20:26:05.076Z,99196.16
2023-11-24T20:29:09.126Z,99183.25
2023-11-24T20:32:12.370Z,99180.84
2023-11-24T20:35:15.222Z,99181.88
2023-11-24T20:38:17.957Z,99189.81
2023-11-24T20:41:21.812Z,99197.06
2023-11-24T20:44:27.561Z,99203.38
2023-11-24T20:47:31.013Z,99199.94
2023-11-24T20:50:33.851Z,99194.50
2023-11-24T20:53:38.943Z,99199.78
2023-11-24T20:56:41.918Z,99205.25
2023-11-24T20:59:45.121Z,99195.38
2023-11-24T21:02:48.247Z,99199.78
2023-11-24T21:05:51.204Z,99193.34
2023-11-24T21:09:00.762Z,99178.41
2023-11-24T21:12:03.665Z,99155.38
2023-11-24T21:15:07.344Z,99168.69
2023-11-24T21:18:12.865Z,99178.78
2023-11-24T21:21:17.222Z,99163.47
2023-11-24T21:24:19.910Z,99167.91
2023-11-24T21:27:22.589Z,99158.41
2023-11-24T21:30:25.696Z,99156.41
2023-11-24T21:33:28.465Z,99140.88
2023-11-24T21:36:32.229Z,99142.47
2023-11-24T21:39:36.563Z,99154.19
2023-11-24T21:42:41.665Z,99174.56
2023-11-24T21:45:44.473Z,99170.13
2023-11-24T21:48:47.799Z,99160.22
2023-11-24T21:51:50.503Z,99153.59
2023-11-24T21:54:54.114Z,99150.75
2023-11-24T21:57:56.988Z,99146.31
2023-11-24T22:00:59.838Z,99154.78
2023-11-24T22:04:02.755Z,99148.31
2023-11-24T22:07:05.548Z,99151.13
2023-11-24T22:10:14.464Z,99153.56
2023-11-24T22:13:17.218Z,99171.09
2023-11-24T22:16:22.017Z,99181.59
2023-11-24T22:19:24.820Z,99178.97
2023-11-24T22:22:28.549Z,99184.63
2023-11-24T22:25:31.376Z,99188.88
2023-11-24T22:28:34.146Z,99181.59
2023-11-24T22:31:36.907Z,99187.66
2023-11-24T22:34:39.615Z,99181.81
2023-11-24T22:37:42.370Z,99158.63
2023-11-24T22:40:49.327Z,99173.91
2023-11-24T22:43:54.021Z,99166.47
2023-11-24T22:46:59.686Z,99170.09
2023-11-24T22:50:02.403Z,99144.88
2023-11-24T22:53:05.127Z,99141.44
2023-11-24T22:56:17.871Z,99132.97
2023-11-24T22:59:20.623Z,99142.44
2023-11-24T23:02:24.387Z,99164.22
2023-11-24T23:05:27.208Z,99167.63
2023-11-24T23:08:30.054Z,99155.34
2023-11-24T23:11:34.635Z,99157.53
2023-11-24T23:14:40.119Z,99152.34
2023-11-24T23:17:44.999Z,99149.72
2023-11-24T23:20:47.832Z,99137.38
2023-11-24T23:23:52.434Z,99130.75
2023-11-24T23:26:55.104Z,99157.38
2023-11-24T23:29:58.087Z,99156.97
2023-11-24T23:33:10.460Z,99158.38
2023-11-24T23:36:19.225Z,99159.00
2023-11-24T23:39:22.089Z,99151.91
2023-11-24T23:42:37.034Z,99167.44
2023-11-24T23:45:40.150Z,99170.25
2023-11-24T23:48:43.115Z,99167.03
2023-11-24T23:51:45.833Z,99176.72
2023-11-24T23:54:48.529Z,99175.31
2023-11-24T23:57:51.660Z,99179.53
